createdAt,value
2022-10-10T00:01:11.281Z,5.00
2022-10-10T00:03:40.691Z,5.70
2022-10-10T00:06:08.935Z,4.90
2022-10-10T00:08:37.026Z,4.90
2022-10-10T00:11:05.671Z,4.80
2022-10-10T00:13:33.587Z,4.70
2022-10-10T00:16:01.617Z,4.70
2022-10-10T00:18:29.588Z,4.70
2022-10-10T00:20:58.854Z,4.70
2022-10-10T00:23:26.775Z,4.70
2022-10-10T00:25:54.875Z,4.70
2022-10-10T00:28:22.988Z,4.70
2022-10-10T00:30:50.875Z,4.60
2022-10-10T00:33:19.147Z,4.70
2022-10-10T00:35:47.094Z,4.70
2022-10-10T00:38:16.432Z,5.50
2022-10-10T00:40:49.059Z,4.70
2022-10-10T00:43:18.075Z,4.70
2022-10-10T00:45:47.543Z,4.60
2022-10-10T00:48:17.823Z,4.60
2022-10-10T00:50:49.830Z,4.60
2022-10-10T00:53:22.153Z,4.30
2022-10-10T00:55:50.315Z,5.20
2022-10-10T00:58:19.792Z,5.10
2022-10-10T01:00:47.750Z,4.50
2022-10-10T01:03:15.823Z,4.40
2022-10-10T01:05:44.543Z,4.50
2022-10-10T01:08:12.731Z,4.40
2022-10-10T01:10:54.866Z,4.40
2022-10-10T01:13:29.200Z,4.40
2022-10-10T01:16:02.171Z,4.40
2022-10-10T01:18:39.683Z,4.40
2022-10-10T01:21:20.820Z,4.40
2022-10-10T01:24:26.754Z,4.40
2022-10-10T01:27:12.527Z,4.30
2022-10-10T01:29:45.410Z,4.30
2022-10-10T01:32:17.603Z,4.30
2022-10-10T01:34:54.193Z,4.80
2022-10-10T01:37:29.236Z,4.20
2022-10-10T01:40:01.486Z,4.20
2022-10-10T01:42:33.272Z,5.00
2022-10-10T01:45:02.491Z,4.10
2022-10-10T01:47:30.323Z,4.00
2022-10-10T01:50:02.890Z,4.00
2022-10-10T01:52:40.399Z,4.00
2022-10-10T01:55:29.330Z,4.00
2022-10-10T01:58:12.065Z,4.00
2022-10-10T02:00:50.108Z,4.00
2022-10-10T02:03:21.980Z,3.90
2022-10-10T02:05:53.897Z,3.90
2022-10-10T02:08:27.967Z,4.60
2022-10-10T02:11:00.541Z,4.40
2022-10-10T02:13:34.043Z,3.80
2022-10-10T02:16:05.775Z,3.80
2022-10-10T02:18:36.972Z,4.50
2022-10-10T02:21:07.649Z,3.80
2022-10-10T02:23:36.578Z,3.80
2022-10-10T02:26:05.420Z,3.80
2022-10-10T02:28:39.175Z,3.80
2022-10-10T02:31:12.024Z,3.80
2022-10-10T02:33:45.539Z,3.80
2022-10-10T02:36:14.570Z,3.80
2022-10-10T02:38:43.667Z,3.80
2022-10-10T02:41:15.535Z,3.70
2022-10-10T02:43:43.964Z,3.70
2022-10-10T02:46:15.339Z,3.70
2022-10-10T02:48:44.065Z,3.70
2022-10-10T02:51:13.394Z,3.70
2022-10-10T02:53:41.238Z,3.70
2022-10-10T02:56:09.092Z,3.70
2022-10-10T02:58:36.969Z,3.70
2022-10-10T03:01:04.937Z,3.70
2022-10-10T03:03:34.307Z,3.70
2022-10-10T03:06:03.199Z,3.70
2022-10-10T03:08:31.025Z,3.70
2022-10-10T03:11:00.472Z,3.70
2022-10-10T03:13:28.711Z,3.70
2022-10-10T03:15:56.622Z,3.70
2022-10-10T03:18:25.074Z,3.70
2022-10-10T03:20:56.007Z,3.70
2022-10-10T03:23:24.295Z,3.80
2022-10-10T03:25:52.219Z,3.80
2022-10-10T03:28:20.137Z,3.90
2022-10-10T03:30:48.106Z,3.90
2022-10-10T03:33:15.977Z,4.00
2022-10-10T03:35:43.844Z,4.00
2022-10-10T03:38:14.113Z,4.10
2022-10-10T03:40:43.412Z,4.10
2022-10-10T03:43:12.933Z,4.20
2022-10-10T03:45:43.356Z,4.20
2022-10-10T03:48:11.497Z,4.20
2022-10-10T03:50:39.374Z,4.20
2022-10-10T03:53:07.947Z,4.20
2022-10-10T03:55:39.799Z,4.40
2022-10-10T03:58:07.656Z,4.50
2022-10-10T04:00:35.935Z,5.50
2022-10-10T04:03:06.286Z,4.80
2022-10-10T04:05:35.580Z,4.90
2022-10-10T04:08:03.902Z,5.00
2022-10-10T04:10:32.250Z,5.20
2022-10-10T04:13:01.454Z,6.10
2022-10-10T04:15:30.548Z,5.40
2022-10-10T04:17:58.559Z,5.70
2022-10-10T04:20:26.430Z,5.60
2022-10-10T04:22:54.376Z,5.70
2022-10-10T04:25:22.268Z,6.50
2022-10-10T04:27:50.146Z,5.90
2022-10-10T04:30:19.887Z,5.90
2022-10-10T04:32:47.979Z,6.60
2022-10-10T04:35:15.982Z,6.20
2022-10-10T04:37:45.626Z,6.10
2022-10-10T04:40:13.487Z,6.00
2022-10-10T04:42:41.333Z,6.60
2022-10-10T04:45:10.119Z,6.80
2022-10-10T04:47:39.347Z,6.10
2022-10-10T04:50:08.027Z,6.00
2022-10-10T04:52:35.899Z,6.00
2022-10-10T04:55:03.815Z,6.40
2022-10-10T04:57:31.659Z,6.00
2022-10-10T04:59:59.544Z,6.60
2022-10-10T05:02:27.399Z,6.90
2022-10-10T05:04:56.600Z,6.40
2022-10-10T05:07:24.905Z,6.30
2022-10-10T05:09:52.742Z,6.00
2022-10-10T05:12:20.574Z,6.00
2022-10-10T05:14:48.528Z,6.70
2022-10-10T05:17:16.574Z,6.00
2022-10-10T05:19:44.446Z,6.50
2022-10-10T05:22:13.635Z,6.10
2022-10-10T05:24:41.465Z,6.30
2022-10-10T05:27:09.327Z,6.70
2022-10-10T05:29:37.243Z,6.70
2022-10-10T05:32:09.875Z,6.20
2022-10-10T05:34:38.301Z,6.60
2022-10-10T05:37:06.279Z,6.20
2022-10-10T05:39:35.512Z,6.30
2022-10-10T05:42:03.451Z,6.50
2022-10-10T05:44:31.402Z,6.30
2022-10-10T05:46:59.265Z,6.30
2022-10-10T05:49:27.098Z,7.10
2022-10-10T05:51:54.945Z,6.40
2022-10-10T05:54:22.865Z,6.90
2022-10-10T05:56:52.042Z,6.60
2022-10-10T05:59:19.859Z,6.50
2022-10-10T06:01:47.725Z,7.00
2022-10-10T06:04:15.601Z,6.60
2022-10-10T06:06:43.722Z,6.80
2022-10-10T06:09:11.573Z,6.60
2022-10-10T06:11:39.416Z,7.00
2022-10-10T06:14:09.094Z,6.60
2022-10-10T06:16:39.486Z,6.80
2022-10-10T06:19:11.368Z,6.70
2022-10-10T06:21:41.871Z,6.80
2022-10-10T06:24:10.672Z,7.00
2022-10-10T06:26:38.631Z,6.80
2022-10-10T06:29:07.870Z,6.90
2022-10-10T06:31:39.315Z,6.90
2022-10-10T06:34:07.270Z,7.00
2022-10-10T06:36:35.188Z,7.00
2022-10-10T06:39:03.070Z,7.20
2022-10-10T06:41:31.044Z,7.20
2022-10-10T06:43:58.909Z,7.20
2022-10-10T06:46:28.103Z,7.20
2022-10-10T06:48:56.039Z,7.30
2022-10-10T06:51:25.639Z,7.30
2022-10-10T06:53:53.497Z,7.40
2022-10-10T06:56:27.184Z,7.50
2022-10-10T06:58:55.747Z,7.60
2022-10-10T07:01:25.208Z,7.70
2022-10-10T07:03:54.465Z,7.80
2022-10-10T07:06:22.686Z,7.90
2022-10-10T07:08:50.611Z,8.00
2022-10-10T07:11:18.497Z,8.00
2022-10-10T07:13:46.362Z,8.10
2022-10-10T07:16:14.223Z,8.20
2022-10-10T07:18:42.052Z,8.30
2022-10-10T07:21:11.878Z,8.40
2022-10-10T07:23:39.826Z,8.60
2022-10-10T07:26:10.775Z,8.70
2022-10-10T07:28:39.302Z,8.80
2022-10-10T07:31:08.609Z,9.00
2022-10-10T07:33:38.847Z,9.10
2022-10-10T07:36:07.655Z,9.30
2022-10-10T07:38:37.991Z,9.40
2022-10-10T07:41:07.140Z,9.50
2022-10-10T07:43:35.106Z,9.60
2022-10-10T07:46:04.853Z,10.40
2022-10-10T07:48:34.846Z,9.70
2022-10-10T07:51:06.617Z,9.80
2022-10-10T07:53:35.817Z,9.80
2022-10-10T07:56:05.438Z,10.00
2022-10-10T07:58:34.233Z,10.00
2022-10-10T08:01:06.239Z,10.10
2022-10-10T08:03:34.210Z,10.20
2022-10-10T08:06:05.163Z,10.40
2022-10-10T08:08:34.527Z,10.50
2022-10-10T08:11:05.261Z,10.60
2022-10-10T08:13:33.369Z,11.50
2022-10-10T08:16:01.324Z,10.90
2022-10-10T08:18:29.227Z,11.10
2022-10-10T08:21:00.370Z,11.20
2022-10-10T08:23:28.394Z,11.30
2022-10-10T08:25:59.450Z,11.40
2022-10-10T08:28:29.152Z,11.50
2022-10-10T08:30:57.098Z,11.70
2022-10-10T08:33:28.045Z,11.80
2022-10-10T08:35:56.077Z,12.00
2022-10-10T08:38:23.895Z,12.10
2022-10-10T08:40:54.561Z,12.30
2022-10-10T08:43:29.641Z,12.40
2022-10-10T08:46:03.266Z,12.60
2022-10-10T08:48:31.873Z,12.70
2022-10-10T08:51:03.208Z,12.90
2022-10-10T08:53:36.861Z,13.00
2022-10-10T08:56:08.068Z,13.40
2022-10-10T08:58:40.123Z,13.30
2022-10-10T09:01:15.861Z,14.30
2022-10-10T09:03:48.144Z,13.70
2022-10-10T09:06:33.883Z,13.90
2022-10-10T09:09:08.106Z,14.10
2022-10-10T09:11:48.603Z,14.30
2022-10-10T09:14:27.537Z,14.60
2022-10-10T09:17:02.636Z,14.50
2022-10-10T09:19:43.899Z,14.70
2022-10-10T09:22:15.779Z,14.90
2022-10-10T09:24:48.787Z,15.00
2022-10-10T09:27:21.230Z,15.20
2022-10-10T09:29:54.641Z,15.30
2022-10-10T09:32:28.046Z,15.40
2022-10-10T09:35:03.079Z,15.50
2022-10-10T09:37:46.763Z,15.70
2022-10-10T09:40:23.693Z,15.80
2022-10-10T09:42:51.628Z,15.80
2022-10-10T09:45:24.326Z,15.90
2022-10-10T09:47:56.194Z,15.90
2022-10-10T09:50:25.096Z,16.10
2022-10-10T09:52:54.055Z,16.20
2022-10-10T09:55:27.604Z,16.30
2022-10-10T09:57:57.686Z,16.50
2022-10-10T10:00:30.266Z,16.80
2022-10-10T10:03:23.908Z,16.50
2022-10-10T10:06:00.840Z,16.70
2022-10-10T10:08:31.372Z,16.60
2022-10-10T10:11:00.642Z,16.70
2022-10-10T10:13:32.023Z,16.90
2022-10-10T10:16:03.439Z,17.00
2022-10-10T10:18:39.560Z,17.30
2022-10-10T10:21:14.165Z,17.20
2022-10-10T10:23:44.502Z,17.40
2022-10-10T10:26:21.613Z,17.50
2022-10-10T10:28:51.111Z,17.50
2022-10-10T10:31:31.007Z,17.60
2022-10-10T10:34:11.611Z,17.60
2022-10-10T10:36:49.303Z,17.70
2022-10-10T10:39:34.640Z,17.70
2022-10-10T10:42:12.554Z,17.70
2022-10-10T10:44:44.874Z,17.60
2022-10-10T10:47:32.217Z,17.60
2022-10-10T10:50:16.008Z,17.70
2022-10-10T10:52:57.794Z,18.00
2022-10-10T10:55:39.322Z,17.90
2022-10-10T10:59:05.781Z,18.00
2022-10-10T11:01:51.908Z,18.10
2022-10-10T11:05:18.961Z,18.20
2022-10-10T11:07:21.295Z,18.30
2022-10-10T11:09:56.699Z,18.40
2022-10-10T11:12:50.270Z,18.50
2022-10-10T11:15:21.869Z,18.60
2022-10-10T11:17:57.915Z,18.60
2022-10-10T11:20:30.448Z,18.60
2022-10-10T11:23:08.674Z,18.70
2022-10-10T11:25:44.309Z,18.70
2022-10-10T11:28:18.103Z,18.70
2022-10-10T11:30:49.901Z,18.70
2022-10-10T11:33:22.100Z,18.70
2022-10-10T11:35:56.087Z,18.70
2022-10-10T11:38:31.206Z,18.70
2022-10-10T11:41:04.554Z,19.00
2022-10-10T11:43:45.988Z,19.10
2022-10-10T11:46:22.530Z,19.00
2022-10-10T11:48:58.032Z,19.00
2022-10-10T11:51:36.919Z,19.00
2022-10-10T11:54:15.403Z,19.00
2022-10-10T11:56:46.134Z,19.00
2022-10-10T11:59:20.820Z,19.00
2022-10-10T12:01:52.967Z,19.00
2022-10-10T12:04:21.095Z,19.20
2022-10-10T12:06:54.627Z,19.20
2022-10-10T12:09:28.275Z,19.20
2022-10-10T12:12:00.044Z,19.90
2022-10-10T12:14:31.359Z,19.40
2022-10-10T12:17:00.529Z,19.10
2022-10-10T12:19:29.831Z,19.10
2022-10-10T12:22:00.591Z,19.10
2022-10-10T12:24:31.499Z,19.10
2022-10-10T12:27:27.824Z,19.80
2022-10-10T12:30:20.146Z,19.00
2022-10-10T12:32:50.297Z,19.10
2022-10-10T12:35:38.147Z,19.10
2022-10-10T12:38:22.029Z,19.20
2022-10-10T12:41:12.509Z,19.20
2022-10-10T12:43:43.989Z,19.20
2022-10-10T12:46:30.075Z,19.00
2022-10-10T12:49:18.848Z,19.00
2022-10-10T12:52:00.111Z,19.70
2022-10-10T12:54:33.695Z,19.00
2022-10-10T12:57:14.669Z,19.00
2022-10-10T12:59:42.968Z,18.90
2022-10-10T13:02:17.587Z,18.70
2022-10-10T13:04:48.575Z,18.70
2022-10-10T13:07:19.465Z,18.70
2022-10-10T13:09:53.072Z,18.70
2022-10-10T13:12:27.539Z,18.70
2022-10-10T13:14:55.977Z,18.80
2022-10-10T13:17:30.092Z,18.80
2022-10-10T13:19:59.978Z,18.80
2022-10-10T13:22:29.168Z,18.80
2022-10-10T13:24:57.418Z,18.70
2022-10-10T13:27:28.878Z,18.70
2022-10-10T13:29:56.892Z,18.70
2022-10-10T13:32:27.619Z,18.60
2022-10-10T13:34:58.363Z,18.60
2022-10-10T13:37:26.763Z,18.80
2022-10-10T13:39:55.627Z,18.70
2022-10-10T13:42:35.905Z,18.70
2022-10-10T13:45:30.140Z,19.50
2022-10-10T13:48:13.318Z,18.80
2022-10-10T13:50:57.460Z,18.80
2022-10-10T13:53:33.056Z,18.90
2022-10-10T13:56:06.065Z,18.80
2022-10-10T13:58:42.914Z,18.90
2022-10-10T14:01:33.584Z,18.90
2022-10-10T14:04:07.237Z,18.90
2022-10-10T14:06:35.919Z,18.90
2022-10-10T14:09:10.090Z,18.80
2022-10-10T14:11:38.088Z,18.90
2022-10-10T14:14:15.599Z,18.80
2022-10-10T14:16:43.471Z,18.80
2022-10-10T14:19:19.146Z,18.80
2022-10-10T14:21:47.013Z,18.80
2022-10-10T14:24:16.139Z,18.90
2022-10-10T14:26:44.345Z,18.90
2022-10-10T14:29:15.577Z,18.90
2022-10-10T14:31:43.977Z,18.80
2022-10-10T14:34:12.586Z,18.90
2022-10-10T14:36:45.656Z,18.90
2022-10-10T14:39:15.056Z,18.80
2022-10-10T14:41:43.025Z,18.80
2022-10-10T14:44:11.951Z,18.90
2022-10-10T14:46:42.487Z,18.90
2022-10-10T14:49:18.334Z,18.80
2022-10-10T14:51:46.381Z,18.70
2022-10-10T14:54:14.519Z,18.70
2022-10-10T14:57:06.480Z,18.60
2022-10-10T14:59:48.561Z,18.50
2022-10-10T15:02:20.806Z,18.50
2022-10-10T15:04:48.794Z,18.30
2022-10-10T15:07:17.022Z,18.20
2022-10-10T15:10:17.571Z,18.20
2022-10-10T15:12:33.623Z,18.10
2022-10-10T15:15:01.448Z,18.00
2022-10-10T15:17:33.628Z,17.90
2022-10-10T15:23:43.002Z,17.70
2022-10-10T15:26:10.913Z,17.60
2022-10-10T15:28:38.954Z,17.50
2022-10-10T15:31:07.169Z,17.90
2022-10-10T15:33:36.358Z,17.40
2022-10-10T15:43:46.855Z,17.10
2022-10-10T15:46:14.694Z,17.10
2022-10-10T15:48:43.902Z,17.00
2022-10-10T15:51:12.177Z,17.00
2022-10-10T15:53:40.100Z,17.10
2022-10-10T15:56:10.289Z,16.90
2022-10-10T15:58:39.248Z,16.70
2022-10-10T16:01:11.809Z,16.80
2022-10-10T16:03:39.786Z,16.70
2022-10-10T16:06:09.632Z,16.60
2022-10-10T16:08:37.670Z,16.60
2022-10-10T16:11:07.279Z,16.60
2022-10-10T16:13:36.199Z,16.50
2022-10-10T16:16:06.819Z,16.30
2022-10-10T16:18:39.987Z,16.20
2022-10-10T16:21:11.807Z,16.10
2022-10-10T16:23:40.361Z,15.90
2022-10-10T16:26:11.638Z,15.70
2022-10-10T16:28:39.557Z,15.60
2022-10-10T16:31:09.752Z,15.50
2022-10-10T16:33:39.735Z,15.30
2022-10-10T16:36:11.478Z,15.20
2022-10-10T16:38:39.803Z,15.10
2022-10-10T16:41:23.628Z,15.00
2022-10-10T16:43:57.429Z,15.10
2022-10-10T16:46:27.334Z,14.80
2022-10-10T16:48:57.898Z,14.80
2022-10-10T16:51:28.647Z,14.70
2022-10-10T16:53:56.755Z,14.60
2022-10-10T16:56:24.566Z,14.50
2022-10-10T16:58:52.403Z,14.40
2022-10-10T17:01:23.195Z,14.40
2022-10-10T17:03:52.039Z,14.30
2022-10-10T17:06:21.758Z,14.30
2022-10-10T17:08:52.567Z,14.30
2022-10-10T17:11:22.067Z,14.20
2022-10-10T17:13:50.941Z,14.20
2022-10-10T17:19:08.810Z,14.10
2022-10-10T17:21:36.877Z,14.00
2022-10-10T17:24:06.491Z,14.00
2022-10-10T17:26:34.397Z,13.90
2022-10-10T17:29:02.342Z,13.90
2022-10-10T17:31:30.303Z,13.80
2022-10-10T17:33:58.498Z,13.80
2022-10-10T17:36:28.255Z,13.70
2022-10-10T17:38:56.901Z,13.60
2022-10-10T17:41:26.079Z,13.60
2022-10-10T17:43:54.043Z,13.60
2022-10-10T17:46:40.442Z,13.50
2022-10-10T17:49:14.351Z,13.50
2022-10-10T17:51:42.361Z,13.50
2022-10-10T17:54:11.088Z,13.50
2022-10-10T17:56:44.451Z,13.50
2022-10-10T17:59:12.550Z,13.50
2022-10-10T18:01:40.479Z,13.40
2022-10-10T18:04:08.810Z,13.40
2022-10-10T18:06:38.583Z,13.40
2022-10-10T18:09:07.339Z,13.30
2022-10-10T18:11:35.206Z,13.30
2022-10-10T18:14:04.593Z,13.30
2022-10-10T18:16:34.630Z,13.20
2022-10-10T18:19:03.316Z,13.20
2022-10-10T18:21:31.170Z,13.10
2022-10-10T18:23:59.084Z,13.10
2022-10-10T18:26:30.058Z,12.90
2022-10-10T18:28:58.871Z,12.90
2022-10-10T18:31:29.381Z,12.80
2022-10-10T18:33:57.515Z,12.70
2022-10-10T18:36:27.135Z,12.70
2022-10-10T18:38:58.218Z,12.60
2022-10-10T18:41:30.359Z,12.50
2022-10-10T18:43:58.197Z,12.40
2022-10-10T18:46:27.687Z,12.40
2022-10-10T18:48:55.590Z,12.30
2022-10-10T18:51:25.090Z,12.30
2022-10-10T18:53:56.208Z,12.30
2022-10-10T18:56:25.173Z,12.20
2022-10-10T18:58:55.998Z,12.20
2022-10-10T19:01:25.647Z,12.20
2022-10-10T19:03:56.146Z,12.20
2022-10-10T19:06:26.538Z,12.20
2022-10-10T19:08:56.350Z,12.20
2022-10-10T19:11:25.705Z,12.10
2022-10-10T19:13:53.627Z,12.00
2022-10-10T19:16:22.343Z,11.90
2022-10-10T19:18:50.209Z,11.90
2022-10-10T19:21:19.443Z,11.80
2022-10-10T19:23:47.301Z,11.70
2022-10-10T19:26:16.571Z,11.60
2022-10-10T19:28:45.191Z,11.60
2022-10-10T19:31:15.843Z,11.50
2022-10-10T19:33:44.271Z,11.40
2022-10-10T19:36:13.377Z,11.30
2022-10-10T19:38:43.418Z,11.30
2022-10-10T19:41:14.183Z,11.20
2022-10-10T19:43:42.213Z,11.10
2022-10-10T19:46:12.007Z,11.00
2022-10-10T19:48:40.041Z,10.90
2022-10-10T19:51:10.458Z,10.90
2022-10-10T19:53:39.432Z,10.80
2022-10-10T19:56:11.777Z,10.70
2022-10-10T19:58:40.023Z,10.60
2022-10-10T20:01:08.942Z,10.60
2022-10-10T20:03:36.843Z,10.50
2022-10-10T20:06:06.169Z,10.40
2022-10-10T20:08:34.646Z,10.40
2022-10-10T20:11:02.871Z,10.30
2022-10-10T20:13:32.398Z,11.70
2022-10-10T20:16:03.476Z,10.20
2022-10-10T20:18:34.169Z,10.20
2022-10-10T20:21:07.711Z,10.10
2022-10-10T20:23:35.627Z,10.00
2022-10-10T20:26:03.708Z,10.00
2022-10-10T20:28:33.300Z,9.90
2022-10-10T20:31:01.214Z,9.90
2022-10-10T20:33:29.066Z,9.80
2022-10-10T20:36:01.018Z,9.80
2022-10-10T20:38:28.878Z,9.70
2022-10-10T20:40:56.864Z,10.80
2022-10-10T20:43:24.701Z,9.70
2022-10-10T20:45:53.907Z,9.60
2022-10-10T20:48:21.748Z,9.70
2022-10-10T20:50:49.613Z,9.50
2022-10-10T20:53:17.436Z,9.50
2022-10-10T20:55:45.266Z,9.50
2022-10-10T20:58:13.131Z,9.50
2022-10-10T21:00:44.652Z,9.40
2022-10-10T21:03:13.827Z,9.40
2022-10-10T21:05:41.659Z,9.40
2022-10-10T21:08:09.500Z,9.60
2022-10-10T21:10:39.070Z,9.30
2022-10-10T21:13:06.903Z,9.30
2022-10-10T21:15:34.803Z,9.30
2022-10-10T21:18:02.638Z,9.30
2022-10-10T21:20:31.851Z,9.20
2022-10-10T21:22:59.718Z,9.20
2022-10-10T21:25:27.550Z,9.20
2022-10-10T21:27:55.414Z,9.10
2022-10-10T21:30:25.083Z,9.10
2022-10-10T21:32:52.955Z,9.10
2022-10-10T21:35:20.828Z,9.10
2022-10-10T21:37:50.035Z,9.00
2022-10-10T21:40:18.039Z,9.00
2022-10-10T21:42:45.887Z,9.00
2022-10-10T21:45:14.207Z,9.00
2022-10-10T21:47:42.991Z,8.90
2022-10-10T21:50:11.111Z,8.90
2022-10-10T21:52:38.997Z,8.90
2022-10-10T21:55:09.125Z,8.80
2022-10-10T21:57:36.972Z,8.80
2022-10-10T22:00:07.082Z,8.80
2022-10-10T22:02:34.935Z,8.70
2022-10-10T22:05:03.259Z,8.70
2022-10-10T22:07:31.083Z,8.70
2022-10-10T22:09:59.751Z,8.60
2022-10-10T22:12:28.991Z,8.60
2022-10-10T22:14:56.837Z,8.60
2022-10-10T22:17:25.032Z,8.60
2022-10-10T22:19:52.844Z,8.50
2022-10-10T22:22:20.922Z,8.50
2022-10-10T22:24:48.765Z,8.40
2022-10-10T22:27:16.586Z,8.40
2022-10-10T22:29:45.805Z,8.40
2022-10-10T22:32:13.632Z,8.30
2022-10-10T22:34:41.511Z,8.30
2022-10-10T22:37:09.358Z,8.30
2022-10-10T22:39:37.591Z,8.40
2022-10-10T22:42:05.562Z,8.20
2022-10-10T22:44:33.460Z,8.20
2022-10-10T22:47:02.673Z,8.20
2022-10-10T22:49:30.651Z,8.20
2022-10-10T22:51:58.626Z,8.20
2022-10-10T22:54:26.481Z,8.10
2022-10-10T22:56:54.306Z,8.10
2022-10-10T22:59:22.259Z,8.10
2022-10-10T23:01:51.313Z,8.10
2022-10-10T23:04:20.487Z,8.10
2022-10-10T23:06:48.370Z,8.00
2022-10-10T23:09:17.508Z,8.00
2022-10-10T23:11:45.491Z,8.00
2022-10-10T23:14:13.361Z,8.00
2022-10-10T23:16:41.199Z,8.00
2022-10-10T23:19:09.042Z,8.00
2022-10-10T23:21:38.235Z,8.00
2022-10-10T23:24:06.856Z,8.00
2022-10-10T23:26:34.699Z,7.90
2022-10-10T23:29:02.534Z,7.90
2022-10-10T23:31:30.359Z,7.90
2022-10-10T23:33:58.169Z,7.90
2022-10-10T23:36:26.497Z,7.80
2022-10-10T23:38:55.766Z,7.90
2022-10-10T23:41:23.626Z,7.80
2022-10-10T23:43:51.500Z,7.80
2022-10-10T23:46:19.511Z,7.80
2022-10-10T23:48:47.326Z,7.80
2022-10-10T23:51:16.171Z,7.80
2022-10-10T23:53:44.200Z,7.80
2022-10-10T23:56:13.427Z,7.80
2022-10-10T23:58:41.244Z,7.70
